sensor_id;sensor_type;location;lat;lon;timestamp;temperature;humidity
73277;DHT22;61501;43.316;5.372;2023-03-01T00:01:23;5.50;91.10
73277;DHT22;61501;43.316;5.372;2023-03-01T00:03:52;5.40;91.30
73277;DHT22;61501;43.316;5.372;2023-03-01T00:06:19;5.40;91.50
73277;DHT22;61501;43.316;5.372;2023-03-01T00:08:45;5.40;91.90
73277;DHT22;61501;43.316;5.372;2023-03-01T00:11:14;5.40;91.30
73277;DHT22;61501;43.316;5.372;2023-03-01T00:13:41;5.40;91.40
73277;DHT22;61501;43.316;5.372;2023-03-01T00:16:10;5.40;91.20
73277;DHT22;61501;43.316;5.372;2023-03-01T00:18:36;5.30;91.20
73277;DHT22;61501;43.316;5.372;2023-03-01T00:21:04;5.30;91.50
73277;DHT22;61501;43.316;5.372;2023-03-01T00:23:31;5.20;92.00
73277;DHT22;61501;43.316;5.372;2023-03-01T00:25:57;5.30;91.70
73277;DHT22;61501;43.316;5.372;2023-03-01T00:28:23;5.30;91.80
73277;DHT22;61501;43.316;5.372;2023-03-01T00:30:49;5.30;92.10
73277;DHT22;61501;43.316;5.372;2023-03-01T00:33:14;5.20;91.50
73277;DHT22;61501;43.316;5.372;2023-03-01T00:35:40;5.20;92.20
73277;DHT22;61501;43.316;5.372;2023-03-01T00:38:06;5.20;91.70
73277;DHT22;61501;43.316;5.372;2023-03-01T00:40:34;5.10;92.00
73277;DHT22;61501;43.316;5.372;2023-03-01T00:43:00;5.10;92.10
73277;DHT22;61501;43.316;5.372;2023-03-01T00:45:26;5.10;92.20
73277;DHT22;61501;43.316;5.372;2023-03-01T00:47:52;5.20;92.20
73277;DHT22;61501;43.316;5.372;2023-03-01T00:50:18;5.10;92.50
73277;DHT22;61501;43.316;5.372;2023-03-01T00:52:44;5.10;92.60
73277;DHT22;61501;43.316;5.372;2023-03-01T00:55:10;5.10;92.70
73277;DHT22;61501;43.316;5.372;2023-03-01T00:57:37;5.10;92.90
73277;DHT22;61501;43.316;5.372;2023-03-01T01:00:04;5.10;92.70
73277;DHT22;61501;43.316;5.372;2023-03-01T01:02:32;5.10;93.00
73277;DHT22;61501;43.316;5.372;2023-03-01T01:04:58;5.10;93.00
73277;DHT22;61501;43.316;5.372;2023-03-01T01:07:24;5.00;92.90
73277;DHT22;61501;43.316;5.372;2023-03-01T01:09:50;5.00;93.20
73277;DHT22;61501;43.316;5.372;2023-03-01T01:12:16;4.90;93.30
73277;DHT22;61501;43.316;5.372;2023-03-01T01:14:41;4.90;93.70
73277;DHT22;61501;43.316;5.372;2023-03-01T01:17:07;4.90;93.80
73277;DHT22;61501;43.316;5.372;2023-03-01T01:19:33;4.90;93.80
73277;DHT22;61501;43.316;5.372;2023-03-01T01:21:58;4.90;93.80
73277;DHT22;61501;43.316;5.372;2023-03-01T01:24:25;4.80;93.70
73277;DHT22;61501;43.316;5.372;2023-03-01T01:26:51;4.90;94.10
73277;DHT22;61501;43.316;5.372;2023-03-01T01:29:16;4.90;93.90
73277;DHT22;61501;43.316;5.372;2023-03-01T01:31:43;4.90;93.80
73277;DHT22;61501;43.316;5.372;2023-03-01T01:34:14;4.90;94.10
73277;DHT22;61501;43.316;5.372;2023-03-01T01:36:40;4.90;93.80
73277;DHT22;61501;43.316;5.372;2023-03-01T01:39:06;4.90;94.10
73277;DHT22;61501;43.316;5.372;2023-03-01T01:41:33;4.90;94.20
73277;DHT22;61501;43.316;5.372;2023-03-01T01:44:24;4.90;94.30
73277;DHT22;61501;43.316;5.372;2023-03-01T01:46:54;4.90;94.30
73277;DHT22;61501;43.316;5.372;2023-03-01T01:49:37;4.90;94.20
73277;DHT22;61501;43.316;5.372;2023-03-01T01:52:27;5.00;94.30
73277;DHT22;61501;43.316;5.372;2023-03-01T01:55:20;4.90;94.10
73277;DHT22;61501;43.316;5.372;2023-03-01T01:57:50;4.90;94.30
73277;DHT22;61501;43.316;5.372;2023-03-01T02:00:22;4.90;94.20
73277;DHT22;61501;43.316;5.372;2023-03-01T02:03:11;5.00;94.40
73277;DHT22;61501;43.316;5.372;2023-03-01T02:05:49;4.90;94.30
73277;DHT22;61501;43.316;5.372;2023-03-01T02:08:19;4.90;94.60
73277;DHT22;61501;43.316;5.372;2023-03-01T02:10:45;5.00;94.90
73277;DHT22;61501;43.316;5.372;2023-03-01T02:13:12;4.90;94.60
73277;DHT22;61501;43.316;5.372;2023-03-01T02:15:39;4.90;94.70
73277;DHT22;61501;43.316;5.372;2023-03-01T02:18:07;5.00;94.70
73277;DHT22;61501;43.316;5.372;2023-03-01T02:23:11;5.00;93.90
73277;DHT22;61501;43.316;5.372;2023-03-01T02:30:42;4.90;93.70
73277;DHT22;61501;43.316;5.372;2023-03-01T02:33:27;4.90;93.90
73277;DHT22;61501;43.316;5.372;2023-03-01T02:35:54;4.90;94.00
73277;DHT22;61501;43.316;5.372;2023-03-01T02:38:21;4.90;94.00
73277;DHT22;61501;43.316;5.372;2023-03-01T02:40:51;4.90;93.80
73277;DHT22;61501;43.316;5.372;2023-03-01T02:43:19;5.00;93.70
73277;DHT22;61501;43.316;5.372;2023-03-01T02:45:50;5.00;93.70
73277;DHT22;61501;43.316;5.372;2023-03-01T02:48:17;5.00;93.70
73277;DHT22;61501;43.316;5.372;2023-03-01T02:54:01;5.00;93.70
73277;DHT22;61501;43.316;5.372;2023-03-01T02:56:31;5.00;93.60
73277;DHT22;61501;43.316;5.372;2023-03-01T02:58:57;5.00;94.10
73277;DHT22;61501;43.316;5.372;2023-03-01T03:01:26;5.00;94.00
73277;DHT22;61501;43.316;5.372;2023-03-01T03:04:05;5.00;94.30
73277;DHT22;61501;43.316;5.372;2023-03-01T03:06:31;5.00;94.30
73277;DHT22;61501;43.316;5.372;2023-03-01T03:08:58;5.00;94.20
73277;DHT22;61501;43.316;5.372;2023-03-01T03:11:24;5.00;94.50
73277;DHT22;61501;43.316;5.372;2023-03-01T03:13:49;5.00;94.30
73277;DHT22;61501;43.316;5.372;2023-03-01T03:16:16;4.90;94.40
73277;DHT22;61501;43.316;5.372;2023-03-01T03:18:42;4.90;94.60
73277;DHT22;61501;43.316;5.372;2023-03-01T03:21:12;4.90;94.90
73277;DHT22;61501;43.316;5.372;2023-03-01T03:23:38;5.00;95.10
73277;DHT22;61501;43.316;5.372;2023-03-01T03:26:05;4.90;94.80
73277;DHT22;61501;43.316;5.372;2023-03-01T03:28:32;4.80;95.30
73277;DHT22;61501;43.316;5.372;2023-03-01T03:30:58;4.80;95.60
73277;DHT22;61501;43.316;5.372;2023-03-01T03:33:29;4.80;95.50
73277;DHT22;61501;43.316;5.372;2023-03-01T03:35:55;4.80;95.70
73277;DHT22;61501;43.316;5.372;2023-03-01T03:38:21;4.90;95.80
73277;DHT22;61501;43.316;5.372;2023-03-01T03:41:07;4.80;95.40
73277;DHT22;61501;43.316;5.372;2023-03-01T03:43:35;4.80;95.60
73277;DHT22;61501;43.316;5.372;2023-03-01T03:46:02;4.70;95.50
73277;DHT22;61501;43.316;5.372;2023-03-01T03:48:32;4.70;95.70
73277;DHT22;61501;43.316;5.372;2023-03-01T03:50:58;4.50;96.20
73277;DHT22;61501;43.316;5.372;2023-03-01T03:53:26;4.50;96.40
73277;DHT22;61501;43.316;5.372;2023-03-01T03:55:52;4.40;96.30
73277;DHT22;61501;43.316;5.372;2023-03-01T03:58:20;4.40;96.10
73277;DHT22;61501;43.316;5.372;2023-03-01T04:00:50;4.40;96.40
73277;DHT22;61501;43.316;5.372;2023-03-01T04:03:21;4.50;96.10
73277;DHT22;61501;43.316;5.372;2023-03-01T04:05:49;4.50;96.30
73277;DHT22;61501;43.316;5.372;2023-03-01T04:08:22;4.60;96.10
73277;DHT22;61501;43.316;5.372;2023-03-01T04:10:51;4.60;96.10
73277;DHT22;61501;43.316;5.372;2023-03-01T04:13:20;4.60;96.00
73277;DHT22;61501;43.316;5.372;2023-03-01T04:15:50;4.60;95.90
73277;DHT22;61501;43.316;5.372;2023-03-01T04:18:16;4.60;95.80
73277;DHT22;61501;43.316;5.372;2023-03-01T04:20:43;4.60;95.80
73277;DHT22;61501;43.316;5.372;2023-03-01T04:23:21;4.60;95.80
73277;DHT22;61501;43.316;5.372;2023-03-01T04:28:26;4.60;95.60
73277;DHT22;61501;43.316;5.372;2023-03-01T04:30:53;4.50;95.40
73277;DHT22;61501;43.316;5.372;2023-03-01T04:33:19;4.50;95.60
73277;DHT22;61501;43.316;5.372;2023-03-01T04:35:45;4.60;95.60
73277;DHT22;61501;43.316;5.372;2023-03-01T04:38:11;4.60;95.80
73277;DHT22;61501;43.316;5.372;2023-03-01T04:40:37;4.50;95.80
73277;DHT22;61501;43.316;5.372;2023-03-01T04:43:04;4.50;95.50
73277;DHT22;61501;43.316;5.372;2023-03-01T04:45:31;4.50;95.70
73277;DHT22;61501;43.316;5.372;2023-03-01T04:47:57;4.40;95.70
73277;DHT22;61501;43.316;5.372;2023-03-01T04:50:23;4.40;95.80
73277;DHT22;61501;43.316;5.372;2023-03-01T04:52:51;4.40;95.50
73277;DHT22;61501;43.316;5.372;2023-03-01T04:55:17;4.40;95.70
73277;DHT22;61501;43.316;5.372;2023-03-01T04:57:42;4.40;95.70
73277;DHT22;61501;43.316;5.372;2023-03-01T05:00:12;4.40;95.70
73277;DHT22;61501;43.316;5.372;2023-03-01T05:02:52;4.40;95.60
73277;DHT22;61501;43.316;5.372;2023-03-01T05:05:27;4.50;95.80
73277;DHT22;61501;43.316;5.372;2023-03-01T05:07:55;4.50;95.80
73277;DHT22;61501;43.316;5.372;2023-03-01T05:10:22;4.50;95.80
73277;DHT22;61501;43.316;5.372;2023-03-01T05:12:48;4.50;95.60
73277;DHT22;61501;43.316;5.372;2023-03-01T05:15:14;4.50;95.70
73277;DHT22;61501;43.316;5.372;2023-03-01T05:17:40;4.40;95.90
73277;DHT22;61501;43.316;5.372;2023-03-01T05:20:06;4.50;95.80
73277;DHT22;61501;43.316;5.372;2023-03-01T05:22:35;4.40;95.70
73277;DHT22;61501;43.316;5.372;2023-03-01T05:25:01;4.40;96.20
73277;DHT22;61501;43.316;5.372;2023-03-01T05:27:27;4.40;96.20
73277;DHT22;61501;43.316;5.372;2023-03-01T05:29:56;4.40;96.40
73277;DHT22;61501;43.316;5.372;2023-03-01T05:32:22;4.30;96.40
73277;DHT22;61501;43.316;5.372;2023-03-01T05:34:47;4.40;96.50
73277;DHT22;61501;43.316;5.372;2023-03-01T05:37:13;4.50;96.70
73277;DHT22;61501;43.316;5.372;2023-03-01T05:39:39;4.40;96.60
73277;DHT22;61501;43.316;5.372;2023-03-01T05:42:05;4.40;96.70
73277;DHT22;61501;43.316;5.372;2023-03-01T05:44:31;4.40;96.90
73277;DHT22;61501;43.316;5.372;2023-03-01T05:46:57;4.40;96.80
73277;DHT22;61501;43.316;5.372;2023-03-01T05:49:23;4.40;96.70
73277;DHT22;61501;43.316;5.372;2023-03-01T05:51:51;4.40;96.90
73277;DHT22;61501;43.316;5.372;2023-03-01T05:54:17;4.40;97.00
73277;DHT22;61501;43.316;5.372;2023-03-01T05:56:43;4.40;96.80
73277;DHT22;61501;43.316;5.372;2023-03-01T05:59:09;4.40;97.00
73277;DHT22;61501;43.316;5.372;2023-03-01T06:01:35;4.40;96.90
73277;DHT22;61501;43.316;5.372;2023-03-01T06:04:01;4.40;97.00
73277;DHT22;61501;43.316;5.372;2023-03-01T06:06:27;4.40;96.70
73277;DHT22;61501;43.316;5.372;2023-03-01T06:08:53;4.40;96.90
73277;DHT22;61501;43.316;5.372;2023-03-01T06:11:20;4.40;96.80
73277;DHT22;61501;43.316;5.372;2023-03-01T06:13:46;4.40;96.80
73277;DHT22;61501;43.316;5.372;2023-03-01T06:16:13;4.40;96.60
73277;DHT22;61501;43.316;5.372;2023-03-01T06:18:40;4.40;96.60
73277;DHT22;61501;43.316;5.372;2023-03-01T06:21:07;4.40;96.50
73277;DHT22;61501;43.316;5.372;2023-03-01T06:23:33;4.40;96.50
73277;DHT22;61501;43.316;5.372;2023-03-01T06:25:59;4.40;96.50
73277;DHT22;61501;43.316;5.372;2023-03-01T06:28:25;4.40;96.30
73277;DHT22;61501;43.316;5.372;2023-03-01T06:30:51;4.40;96.50
73277;DHT22;61501;43.316;5.372;2023-03-01T06:33:18;4.40;96.20
73277;DHT22;61501;43.316;5.372;2023-03-01T06:35:46;4.40;96.20
73277;DHT22;61501;43.316;5.372;2023-03-01T06:38:12;4.40;96.20
73277;DHT22;61501;43.316;5.372;2023-03-01T06:40:40;4.40;96.30
73277;DHT22;61501;43.316;5.372;2023-03-01T06:43:06;4.50;96.40
73277;DHT22;61501;43.316;5.372;2023-03-01T06:45:33;4.50;95.80
73277;DHT22;61501;43.316;5.372;2023-03-01T06:48:06;4.50;95.80
73277;DHT22;61501;43.316;5.372;2023-03-01T06:50:33;4.40;95.60
73277;DHT22;61501;43.316;5.372;2023-03-01T06:52:59;4.50;95.70
73277;DHT22;61501;43.316;5.372;2023-03-01T06:55:25;4.50;95.60
73277;DHT22;61501;43.316;5.372;2023-03-01T06:57:55;4.60;95.40
73277;DHT22;61501;43.316;5.372;2023-03-01T07:00:22;4.50;95.20
73277;DHT22;61501;43.316;5.372;2023-03-01T07:02:48;4.50;95.50
73277;DHT22;61501;43.316;5.372;2023-03-01T07:05:13;4.50;95.60
73277;DHT22;61501;43.316;5.372;2023-03-01T07:07:39;4.50;95.50
73277;DHT22;61501;43.316;5.372;2023-03-01T07:10:05;4.50;95.70
73277;DHT22;61501;43.316;5.372;2023-03-01T07:12:31;4.50;95.80
73277;DHT22;61501;43.316;5.372;2023-03-01T07:15:00;4.50;95.80
73277;DHT22;61501;43.316;5.372;2023-03-01T07:17:25;4.50;96.10
73277;DHT22;61501;43.316;5.372;2023-03-01T07:19:51;4.40;96.20
73277;DHT22;61501;43.316;5.372;2023-03-01T07:22:17;4.40;96.30
73277;DHT22;61501;43.316;5.372;2023-03-01T07:24:43;4.50;96.20
73277;DHT22;61501;43.316;5.372;2023-03-01T07:27:09;4.60;96.10
73277;DHT22;61501;43.316;5.372;2023-03-01T07:29:35;4.60;96.20
73277;DHT22;61501;43.316;5.372;2023-03-01T07:32:02;4.60;96.00
73277;DHT22;61501;43.316;5.372;2023-03-01T07:34:28;4.60;96.10
73277;DHT22;61501;43.316;5.372;2023-03-01T07:36:54;4.70;96.30
73277;DHT22;61501;43.316;5.372;2023-03-01T07:39:20;4.70;95.90
73277;DHT22;61501;43.316;5.372;2023-03-01T07:41:48;4.70;95.90
73277;DHT22;61501;43.316;5.372;2023-03-01T07:44:14;4.70;95.60
73277;DHT22;61501;43.316;5.372;2023-03-01T07:46:41;4.70;95.70
73277;DHT22;61501;43.316;5.372;2023-03-01T07:49:07;4.80;95.50
73277;DHT22;61501;43.316;5.372;2023-03-01T07:51:33;4.80;95.40
73277;DHT22;61501;43.316;5.372;2023-03-01T07:53:58;4.80;95.10
73277;DHT22;61501;43.316;5.372;2023-03-01T07:56:24;4.80;95.00
73277;DHT22;61501;43.316;5.372;2023-03-01T07:58:50;4.80;94.90
73277;DHT22;61501;43.316;5.372;2023-03-01T08:01:18;5.00;95.00
73277;DHT22;61501;43.316;5.372;2023-03-01T08:03:44;5.10;94.30
73277;DHT22;61501;43.316;5.372;2023-03-01T08:06:11;5.20;94.40
73277;DHT22;61501;43.316;5.372;2023-03-01T08:08:37;5.30;94.20
73277;DHT22;61501;43.316;5.372;2023-03-01T08:11:04;5.30;94.00
73277;DHT22;61501;43.316;5.372;2023-03-01T08:13:32;5.30;94.00
73277;DHT22;61501;43.316;5.372;2023-03-01T08:16:07;5.20;93.90
73277;DHT22;61501;43.316;5.372;2023-03-01T08:18:33;5.20;93.90
73277;DHT22;61501;43.316;5.372;2023-03-01T08:21:07;5.20;93.40
73277;DHT22;61501;43.316;5.372;2023-03-01T08:23:33;5.00;94.20
73277;DHT22;61501;43.316;5.372;2023-03-01T08:26:11;5.00;94.60
73277;DHT22;61501;43.316;5.372;2023-03-01T08:28:38;5.10;94.20
73277;DHT22;61501;43.316;5.372;2023-03-01T08:31:29;5.20;94.40
73277;DHT22;61501;43.316;5.372;2023-03-01T08:33:59;5.20;94.50
73277;DHT22;61501;43.316;5.372;2023-03-01T08:36:28;5.20;94.50
73277;DHT22;61501;43.316;5.372;2023-03-01T08:38:54;5.30;94.30
73277;DHT22;61501;43.316;5.372;2023-03-01T08:41:21;5.30;93.90
73277;DHT22;61501;43.316;5.372;2023-03-01T08:43:46;5.20;94.30
73277;DHT22;61501;43.316;5.372;2023-03-01T08:46:12;5.40;94.00
73277;DHT22;61501;43.316;5.372;2023-03-01T08:48:38;5.40;94.00
73277;DHT22;61501;43.316;5.372;2023-03-01T08:51:16;5.50;93.70
73277;DHT22;61501;43.316;5.372;2023-03-01T08:53:42;5.70;93.30
73277;DHT22;61501;43.316;5.372;2023-03-01T08:56:09;5.70;93.30
73277;DHT22;61501;43.316;5.372;2023-03-01T08:58:35;5.80;93.30
73277;DHT22;61501;43.316;5.372;2023-03-01T09:01:07;5.70;93.30
73277;DHT22;61501;43.316;5.372;2023-03-01T09:03:32;5.80;93.20
73277;DHT22;61501;43.316;5.372;2023-03-01T09:06:02;5.80;93.20
73277;DHT22;61501;43.316;5.372;2023-03-01T09:08:28;5.80;93.10
73277;DHT22;61501;43.316;5.372;2023-03-01T09:10:54;5.70;93.70
73277;DHT22;61501;43.316;5.372;2023-03-01T09:13:20;5.70;93.80
73277;DHT22;61501;43.316;5.372;2023-03-01T09:15:46;5.80;93.70
73277;DHT22;61501;43.316;5.372;2023-03-01T09:18:11;5.80;93.60
73277;DHT22;61501;43.316;5.372;2023-03-01T09:20:37;5.80;93.90
73277;DHT22;61501;43.316;5.372;2023-03-01T09:23:03;5.90;93.80
73277;DHT22;61501;43.316;5.372;2023-03-01T09:25:28;5.90;94.20
73277;DHT22;61501;43.316;5.372;2023-03-01T09:27:54;6.00;93.90
73277;DHT22;61501;43.316;5.372;2023-03-01T09:30:22;6.40;93.40
73277;DHT22;61501;43.316;5.372;2023-03-01T09:32:48;6.60;92.60
73277;DHT22;61501;43.316;5.372;2023-03-01T09:35:13;6.80;92.40
73277;DHT22;61501;43.316;5.372;2023-03-01T09:37:42;6.90;92.00
73277;DHT22;61501;43.316;5.372;2023-03-01T09:40:19;7.20;91.70
73277;DHT22;61501;43.316;5.372;2023-03-01T09:42:53;7.30;91.10
73277;DHT22;61501;43.316;5.372;2023-03-01T09:45:35;7.30;91.30
73277;DHT22;61501;43.316;5.372;2023-03-01T09:48:04;7.40;90.70
73277;DHT22;61501;43.316;5.372;2023-03-01T09:50:39;7.40;91.00
73277;DHT22;61501;43.316;5.372;2023-03-01T09:53:18;7.30;91.30
73277;DHT22;61501;43.316;5.372;2023-03-01T09:56:11;7.20;91.60
73277;DHT22;61501;43.316;5.372;2023-03-01T10:01:36;7.00;92.40
73277;DHT22;61501;43.316;5.372;2023-03-01T10:06:35;7.00;92.60
73277;DHT22;61501;43.316;5.372;2023-03-01T10:09:09;7.00;92.70
73277;DHT22;61501;43.316;5.372;2023-03-01T10:11:39;7.20;92.90
73277;DHT22;61501;43.316;5.372;2023-03-01T10:14:18;7.40;92.10
73277;DHT22;61501;43.316;5.372;2023-03-01T10:17:24;7.50;92.50
73277;DHT22;61501;43.316;5.372;2023-03-01T10:19:45;7.70;91.90
73277;DHT22;61501;43.316;5.372;2023-03-01T10:22:29;7.80;91.10
73277;DHT22;61501;43.316;5.372;2023-03-01T10:25:02;8.00;91.00
73277;DHT22;61501;43.316;5.372;2023-03-01T10:27:52;8.20;90.40
73277;DHT22;61501;43.316;5.372;2023-03-01T10:30:37;8.50;90.10
73277;DHT22;61501;43.316;5.372;2023-03-01T10:33:20;8.40;89.70
73277;DHT22;61501;43.316;5.372;2023-03-01T10:35:47;8.30;89.80
73277;DHT22;61501;43.316;5.372;2023-03-01T10:38:14;8.40;88.10
73277;DHT22;61501;43.316;5.372;2023-03-01T10:43:23;8.50;86.80
73277;DHT22;61501;43.316;5.372;2023-03-01T10:45:49;8.50;88.20
73277;DHT22;61501;43.316;5.372;2023-03-01T10:48:26;8.60;87.70
73277;DHT22;61501;43.316;5.372;2023-03-01T10:53:28;9.00;84.80
73277;DHT22;61501;43.316;5.372;2023-03-01T10:56:14;9.10;84.30
73277;DHT22;61501;43.316;5.372;2023-03-01T10:59:02;9.20;84.50
73277;DHT22;61501;43.316;5.372;2023-03-01T11:01:33;9.30;84.10
73277;DHT22;61501;43.316;5.372;2023-03-01T11:04:13;9.50;82.60
73277;DHT22;61501;43.316;5.372;2023-03-01T11:06:42;9.50;82.50
73277;DHT22;61501;43.316;5.372;2023-03-01T11:09:20;9.40;84.40
73277;DHT22;61501;43.316;5.372;2023-03-01T11:11:51;9.20;84.70
73277;DHT22;61501;43.316;5.372;2023-03-01T11:14:23;9.10;86.00
73277;DHT22;61501;43.316;5.372;2023-03-01T11:17:01;9.10;86.60
73277;DHT22;61501;43.316;5.372;2023-03-01T11:19:27;9.30;85.80
73277;DHT22;61501;43.316;5.372;2023-03-01T11:22:04;9.20;83.80
73277;DHT22;61501;43.316;5.372;2023-03-01T11:25:07;9.20;84.20
73277;DHT22;61501;43.316;5.372;2023-03-01T11:27:43;9.10;85.70
73277;DHT22;61501;43.316;5.372;2023-03-01T11:36:40;9.10;82.70
73277;DHT22;61501;43.316;5.372;2023-03-01T11:39:13;9.30;83.00
73277;DHT22;61501;43.316;5.372;2023-03-01T11:42:02;9.50;82.10
73277;DHT22;61501;43.316;5.372;2023-03-01T11:44:33;9.50;80.40
73277;DHT22;61501;43.316;5.372;2023-03-01T11:47:27;9.60;80.30
73277;DHT22;61501;43.316;5.372;2023-03-01T11:52:43;9.70;79.00
73277;DHT22;61501;43.316;5.372;2023-03-01T11:58:14;10.10;77.40
73277;DHT22;61501;43.316;5.372;2023-03-01T12:09:56;9.60;79.70
73277;DHT22;61501;43.316;5.372;2023-03-01T12:31:34;9.50;80.60
73277;DHT22;61501;43.316;5.372;2023-03-01T12:48:55;10.90;76.90
73277;DHT22;61501;43.316;5.372;2023-03-01T12:51:30;12.00;71.60
73277;DHT22;61501;43.316;5.372;2023-03-01T12:53:58;12.30;68.40
73277;DHT22;61501;43.316;5.372;2023-03-01T12:56:32;12.70;67.50
73277;DHT22;61501;43.316;5.372;2023-03-01T12:59:12;12.20;68.70
73277;DHT22;61501;43.316;5.372;2023-03-01T13:01:42;11.80;70.10
73277;DHT22;61501;43.316;5.372;2023-03-01T13:17:57;12.50;66.30
73277;DHT22;61501;43.316;5.372;2023-03-01T13:23:24;12.50;66.30
73277;DHT22;61501;43.316;5.372;2023-03-01T13:26:15;13.10;63.80
73277;DHT22;61501;43.316;5.372;2023-03-01T13:28:53;12.90;63.50
73277;DHT22;61501;43.316;5.372;2023-03-01T13:33:50;12.00;65.10
73277;DHT22;61501;43.316;5.372;2023-03-01T13:46:48;11.20;68.50
73277;DHT22;61501;43.316;5.372;2023-03-01T13:49:18;11.10;69.90
73277;DHT22;61501;43.316;5.372;2023-03-01T13:51:49;11.00;69.90
73277;DHT22;61501;43.316;5.372;2023-03-01T13:54:26;11.10;69.80
73277;DHT22;61501;43.316;5.372;2023-03-01T13:56:54;11.10;69.00
73277;DHT22;61501;43.316;5.372;2023-03-01T13:59:22;11.20;70.20
73277;DHT22;61501;43.316;5.372;2023-03-01T14:01:58;11.20;68.40
73277;DHT22;61501;43.316;5.372;2023-03-01T14:04:30;11.20;68.90
73277;DHT22;61501;43.316;5.372;2023-03-01T14:07:29;11.10;69.10
73277;DHT22;61501;43.316;5.372;2023-03-01T14:10:00;11.00;70.00
73277;DHT22;61501;43.316;5.372;2023-03-01T14:18:07;10.70;72.30
73277;DHT22;61501;43.316;5.372;2023-03-01T14:20:39;10.70;70.50
73277;DHT22;61501;43.316;5.372;2023-03-01T14:23:15;10.70;70.40
73277;DHT22;61501;43.316;5.372;2023-03-01T14:25:51;10.90;69.50
73277;DHT22;61501;43.316;5.372;2023-03-01T14:30:48;10.70;71.50
73277;DHT22;61501;43.316;5.372;2023-03-01T14:36:11;10.90;70.70
73277;DHT22;61501;43.316;5.372;2023-03-01T14:38:39;10.90;70.40
73277;DHT22;61501;43.316;5.372;2023-03-01T14:43:47;11.10;70.00
73277;DHT22;61501;43.316;5.372;2023-03-01T14:46:29;11.10;70.70
73277;DHT22;61501;43.316;5.372;2023-03-01T14:49:20;11.20;70.60
73277;DHT22;61501;43.316;5.372;2023-03-01T14:52:05;11.10;69.60
73277;DHT22;61501;43.316;5.372;2023-03-01T14:54:41;11.00;69.80
73277;DHT22;61501;43.316;5.372;2023-03-01T14:57:14;11.00;69.90
73277;DHT22;61501;43.316;5.372;2023-03-01T14:59:41;11.00;69.90
73277;DHT22;61501;43.316;5.372;2023-03-01T15:02:18;10.90;70.10
73277;DHT22;61501;43.316;5.372;2023-03-01T15:04:50;10.90;70.50
73277;DHT22;61501;43.316;5.372;2023-03-01T15:07:17;10.90;71.10
73277;DHT22;61501;43.316;5.372;2023-03-01T15:09:43;10.80;72.00
73277;DHT22;61501;43.316;5.372;2023-03-01T15:12:34;10.80;71.50
73277;DHT22;61501;43.316;5.372;2023-03-01T15:15:01;10.80;72.10
73277;DHT22;61501;43.316;5.372;2023-03-01T15:17:31;10.80;72.90
73277;DHT22;61501;43.316;5.372;2023-03-01T15:19:58;10.70;72.00
73277;DHT22;61501;43.316;5.372;2023-03-01T15:22:26;10.60;73.10
73277;DHT22;61501;43.316;5.372;2023-03-01T15:24:53;10.60;73.10
73277;DHT22;61501;43.316;5.372;2023-03-01T15:27:22;10.70;72.90
73277;DHT22;61501;43.316;5.372;2023-03-01T15:29:57;10.70;72.00
73277;DHT22;61501;43.316;5.372;2023-03-01T15:32:28;10.70;71.50
73277;DHT22;61501;43.316;5.372;2023-03-01T15:34:56;10.80;71.30
73277;DHT22;61501;43.316;5.372;2023-03-01T15:40:16;10.90;69.10
73277;DHT22;61501;43.316;5.372;2023-03-01T15:42:42;10.90;69.10
73277;DHT22;61501;43.316;5.372;2023-03-01T15:45:21;11.00;68.80
73277;DHT22;61501;43.316;5.372;2023-03-01T15:47:49;11.20;68.10
73277;DHT22;61501;43.316;5.372;2023-03-01T15:52:50;11.60;66.00
73277;DHT22;61501;43.316;5.372;2023-03-01T15:55:22;11.80;65.00
73277;DHT22;61501;43.316;5.372;2023-03-01T15:57:48;12.00;66.30
73277;DHT22;61501;43.316;5.372;2023-03-01T16:00:16;11.90;65.60
73277;DHT22;61501;43.316;5.372;2023-03-01T16:02:43;11.60;65.80
73277;DHT22;61501;43.316;5.372;2023-03-01T16:05:22;11.60;66.70
73277;DHT22;61501;43.316;5.372;2023-03-01T16:07:49;11.20;66.90
73277;DHT22;61501;43.316;5.372;2023-03-01T16:10:15;11.00;67.00
73277;DHT22;61501;43.316;5.372;2023-03-01T16:12:41;10.80;68.20
73277;DHT22;61501;43.316;5.372;2023-03-01T16:15:28;10.70;67.90
73277;DHT22;61501;43.316;5.372;2023-03-01T16:17:54;10.60;67.90
73277;DHT22;61501;43.316;5.372;2023-03-01T16:20:20;10.60;68.10
73277;DHT22;61501;43.316;5.372;2023-03-01T16:22:46;10.50;68.90
73277;DHT22;61501;43.316;5.372;2023-03-01T16:25:14;10.50;68.70
73277;DHT22;61501;43.316;5.372;2023-03-01T16:27:44;10.40;68.90
73277;DHT22;61501;43.316;5.372;2023-03-01T16:30:12;10.50;69.10
73277;DHT22;61501;43.316;5.372;2023-03-01T16:32:43;10.50;69.10
73277;DHT22;61501;43.316;5.372;2023-03-01T16:35:10;10.50;69.00
73277;DHT22;61501;43.316;5.372;2023-03-01T16:37:37;10.40;69.20
73277;DHT22;61501;43.316;5.372;2023-03-01T16:40:10;10.40;69.60
73277;DHT22;61501;43.316;5.372;2023-03-01T16:42:41;10.40;70.20
73277;DHT22;61501;43.316;5.372;2023-03-01T16:45:07;10.40;70.30
73277;DHT22;61501;43.316;5.372;2023-03-01T16:47:33;10.30;69.80
73277;DHT22;61501;43.316;5.372;2023-03-01T16:49:59;10.30;70.10
73277;DHT22;61501;43.316;5.372;2023-03-01T16:52:25;10.20;70.50
73277;DHT22;61501;43.316;5.372;2023-03-01T16:54:51;10.20;70.10
73277;DHT22;61501;43.316;5.372;2023-03-01T16:57:17;10.10;70.40
73277;DHT22;61501;43.316;5.372;2023-03-01T16:59:42;10.10;69.80
73277;DHT22;61501;43.316;5.372;2023-03-01T17:02:12;10.10;70.30
73277;DHT22;61501;43.316;5.372;2023-03-01T17:04:41;10.10;69.60
73277;DHT22;61501;43.316;5.372;2023-03-01T17:07:07;10.00;69.80
73277;DHT22;61501;43.316;5.372;2023-03-01T17:09:37;10.00;69.60
73277;DHT22;61501;43.316;5.372;2023-03-01T17:12:05;10.00;69.20
73277;DHT22;61501;43.316;5.372;2023-03-01T17:14:30;10.00;69.80
73277;DHT22;61501;43.316;5.372;2023-03-01T17:16:56;9.90;70.50
73277;DHT22;61501;43.316;5.372;2023-03-01T17:19:21;9.90;69.90
73277;DHT22;61501;43.316;5.372;2023-03-01T17:21:47;9.90;70.10
73277;DHT22;61501;43.316;5.372;2023-03-01T17:24:13;9.90;69.90
73277;DHT22;61501;43.316;5.372;2023-03-01T17:26:39;9.90;69.90
73277;DHT22;61501;43.316;5.372;2023-03-01T17:29:05;9.80;70.20
73277;DHT22;61501;43.316;5.372;2023-03-01T17:31:32;9.70;69.20
73277;DHT22;61501;43.316;5.372;2023-03-01T17:33:57;9.60;70.00
73277;DHT22;61501;43.316;5.372;2023-03-01T17:36:23;9.60;70.60
73277;DHT22;61501;43.316;5.372;2023-03-01T17:38:50;9.60;70.70
73277;DHT22;61501;43.316;5.372;2023-03-01T17:41:17;9.60;70.90
73277;DHT22;61501;43.316;5.372;2023-03-01T17:43:44;9.60;70.10
73277;DHT22;61501;43.316;5.372;2023-03-01T17:46:10;9.50;70.50
73277;DHT22;61501;43.316;5.372;2023-03-01T17:48:36;9.50;71.10
73277;DHT22;61501;43.316;5.372;2023-03-01T17:51:09;9.50;70.80
73277;DHT22;61501;43.316;5.372;2023-03-01T17:53:36;9.50;70.90
73277;DHT22;61501;43.316;5.372;2023-03-01T17:56:04;9.50;70.70
73277;DHT22;61501;43.316;5.372;2023-03-01T17:58:31;9.60;71.00
73277;DHT22;61501;43.316;5.372;2023-03-01T18:03:35;9.50;71.80
73277;DHT22;61501;43.316;5.372;2023-03-01T18:06:01;9.50;72.70
73277;DHT22;61501;43.316;5.372;2023-03-01T18:08:26;9.50;73.40